sensor_id;sensor_type;location;lat;lon;timestamp;temperature;humidity
9699;DHT22;10089;47.876;8.346;2023-07-13T00:00:23;17.90;99.90
9699;DHT22;10089;47.876;8.346;2023-07-13T00:02:49;17.90;99.90
9699;DHT22;10089;47.876;8.346;2023-07-13T00:05:15;17.80;99.90
9699;DHT22;10089;47.876;8.346;2023-07-13T00:07:40;17.90;99.90
9699;DHT22;10089;47.876;8.346;2023-07-13T00:10:06;18.70;99.90
9699;DHT22;10089;47.876;8.346;2023-07-13T00:12:35;17.60;99.90
9699;DHT22;10089;47.876;8.346;2023-07-13T00:15:06;17.20;99.90
9699;DHT22;10089;47.876;8.346;2023-07-13T00:17:32;17.20;99.90
9699;DHT22;10089;47.876;8.346;2023-07-13T00:19:57;16.90;99.90
9699;DHT22;10089;47.876;8.346;2023-07-13T00:22:24;17.30;99.90
9699;DHT22;10089;47.876;8.346;2023-07-13T00:24:52;18.80;99.90
9699;DHT22;10089;47.876;8.346;2023-07-13T00:27:18;19.00;99.90
9699;DHT22;10089;47.876;8.346;2023-07-13T00:29:44;18.90;99.90
9699;DHT22;10089;47.876;8.346;2023-07-13T00:32:10;19.00;99.90
9699;DHT22;10089;47.876;8.346;2023-07-13T00:34:37;17.60;99.90
9699;DHT22;10089;47.876;8.346;2023-07-13T00:37:03;17.70;99.90
9699;DHT22;10089;47.876;8.346;2023-07-13T00:39:32;17.70;99.90
9699;DHT22;10089;47.876;8.346;2023-07-13T00:41:58;17.70;99.90
9699;DHT22;10089;47.876;8.346;2023-07-13T00:44:24;17.90;99.90
9699;DHT22;10089;47.876;8.346;2023-07-13T00:46:50;18.50;99.90
9699;DHT22;10089;47.876;8.346;2023-07-13T00:49:19;18.50;99.90
9699;DHT22;10089;47.876;8.346;2023-07-13T00:51:49;17.70;99.90
9699;DHT22;10089;47.876;8.346;2023-07-13T00:54:25;18.80;99.90
9699;DHT22;10089;47.876;8.346;2023-07-13T00:56:54;18.40;91.30
9699;DHT22;10089;47.876;8.346;2023-07-13T00:59:21;17.50;98.30
9699;DHT22;10089;47.876;8.346;2023-07-13T01:01:48;18.30;99.90
9699;DHT22;10089;47.876;8.346;2023-07-13T01:04:14;18.80;99.90
9699;DHT22;10089;47.876;8.346;2023-07-13T01:06:40;17.20;99.90
9699;DHT22;10089;47.876;8.346;2023-07-13T01:09:07;18.90;99.90
9699;DHT22;10089;47.876;8.346;2023-07-13T01:11:34;17.40;99.90
9699;DHT22;10089;47.876;8.346;2023-07-13T01:14:00;17.60;99.90
9699;DHT22;10089;47.876;8.346;2023-07-13T01:16:33;17.80;99.90
9699;DHT22;10089;47.876;8.346;2023-07-13T01:18:59;17.60;99.90
9699;DHT22;10089;47.876;8.346;2023-07-13T01:21:27;19.00;99.90
9699;DHT22;10089;47.876;8.346;2023-07-13T01:23:53;17.60;99.90
9699;DHT22;10089;47.876;8.346;2023-07-13T01:26:18;16.90;99.90
9699;DHT22;10089;47.876;8.346;2023-07-13T01:28:44;18.20;99.90
9699;DHT22;10089;47.876;8.346;2023-07-13T01:31:10;17.30;99.90
9699;DHT22;10089;47.876;8.346;2023-07-13T01:33:38;17.70;98.20
9699;DHT22;10089;47.876;8.346;2023-07-13T01:36:05;17.20;99.90
9699;DHT22;10089;47.876;8.346;2023-07-13T01:38:33;17.60;99.90
9699;DHT22;10089;47.876;8.346;2023-07-13T01:40:59;17.50;1.00
9699;DHT22;10089;47.876;8.346;2023-07-13T01:43:25;17.60;46.80
9699;DHT22;10089;47.876;8.346;2023-07-13T01:45:50;17.90;99.90
9699;DHT22;10089;47.876;8.346;2023-07-13T01:48:16;17.10;99.90
9699;DHT22;10089;47.876;8.346;2023-07-13T01:50:42;17.00;62.30
9699;DHT22;10089;47.876;8.346;2023-07-13T01:53:08;17.10;1.00
9699;DHT22;10089;47.876;8.346;2023-07-13T01:55:35;17.10;1.00
9699;DHT22;10089;47.876;8.346;2023-07-13T01:58:01;17.60;1.00
9699;DHT22;10089;47.876;8.346;2023-07-13T02:00:26;18.70;15.10
9699;DHT22;10089;47.876;8.346;2023-07-13T02:02:52;17.30;1.00
9699;DHT22;10089;47.876;8.346;2023-07-13T02:05:18;17.20;1.00
9699;DHT22;10089;47.876;8.346;2023-07-13T02:07:44;18.20;1.00
9699;DHT22;10089;47.876;8.346;2023-07-13T02:10:10;17.40;1.00
9699;DHT22;10089;47.876;8.346;2023-07-13T02:12:36;17.10;1.00
9699;DHT22;10089;47.876;8.346;2023-07-13T02:15:03;17.20;1.00
9699;DHT22;10089;47.876;8.346;2023-07-13T02:17:29;17.20;1.00
9699;DHT22;10089;47.876;8.346;2023-07-13T02:19:55;17.80;1.00
9699;DHT22;10089;47.876;8.346;2023-07-13T02:22:21;17.10;1.00
9699;DHT22;10089;47.876;8.346;2023-07-13T02:24:47;18.40;1.00
9699;DHT22;10089;47.876;8.346;2023-07-13T02:27:13;17.10;1.00
9699;DHT22;10089;47.876;8.346;2023-07-13T02:29:38;17.50;1.00
9699;DHT22;10089;47.876;8.346;2023-07-13T02:32:04;17.50;1.00
9699;DHT22;10089;47.876;8.346;2023-07-13T02:34:31;17.10;1.00
9699;DHT22;10089;47.876;8.346;2023-07-13T02:36:56;17.00;1.00
9699;DHT22;10089;47.876;8.346;2023-07-13T02:39:22;18.10;1.00
9699;DHT22;10089;47.876;8.346;2023-07-13T02:41:47;17.10;1.00
9699;DHT22;10089;47.876;8.346;2023-07-13T02:44:14;17.10;1.00
9699;DHT22;10089;47.876;8.346;2023-07-13T02:46:40;17.10;1.00
9699;DHT22;10089;47.876;8.346;2023-07-13T02:49:06;18.60;1.00
9699;DHT22;10089;47.876;8.346;2023-07-13T02:51:31;18.00;1.00
9699;DHT22;10089;47.876;8.346;2023-07-13T02:54:00;17.30;1.00
9699;DHT22;10089;47.876;8.346;2023-07-13T02:56:27;17.40;1.00
9699;DHT22;10089;47.876;8.346;2023-07-13T02:58:54;16.90;1.00
9699;DHT22;10089;47.876;8.346;2023-07-13T03:01:20;16.60;1.00
9699;DHT22;10089;47.876;8.346;2023-07-13T03:03:48;17.50;1.00
9699;DHT22;10089;47.876;8.346;2023-07-13T03:06:14;17.00;1.00
9699;DHT22;10089;47.876;8.346;2023-07-13T03:08:43;18.10;1.00
9699;DHT22;10089;47.876;8.346;2023-07-13T03:11:15;17.80;1.00
9699;DHT22;10089;47.876;8.346;2023-07-13T03:13:42;18.30;1.00
9699;DHT22;10089;47.876;8.346;2023-07-13T03:16:08;17.00;1.00
9699;DHT22;10089;47.876;8.346;2023-07-13T03:18:35;17.20;1.00
9699;DHT22;10089;47.876;8.346;2023-07-13T03:21:01;16.90;1.00
9699;DHT22;10089;47.876;8.346;2023-07-13T03:23:27;16.80;1.00
9699;DHT22;10089;47.876;8.346;2023-07-13T03:26:22;16.70;1.00
9699;DHT22;10089;47.876;8.346;2023-07-13T03:28:48;17.50;1.00
9699;DHT22;10089;47.876;8.346;2023-07-13T03:31:19;16.80;25.80
9699;DHT22;10089;47.876;8.346;2023-07-13T03:33:45;16.70;30.90
9699;DHT22;10089;47.876;8.346;2023-07-13T03:36:17;16.70;24.60
9699;DHT22;10089;47.876;8.346;2023-07-13T03:38:52;16.90;1.00
9699;DHT22;10089;47.876;8.346;2023-07-13T03:41:18;16.50;1.00
9699;DHT22;10089;47.876;8.346;2023-07-13T03:43:44;16.50;24.60
9699;DHT22;10089;47.876;8.346;2023-07-13T03:46:10;16.70;6.40
9699;DHT22;10089;47.876;8.346;2023-07-13T03:48:35;16.50;23.60
9699;DHT22;10089;47.876;8.346;2023-07-13T03:51:01;17.00;55.30
9699;DHT22;10089;47.876;8.346;2023-07-13T03:53:26;16.50;35.30
9699;DHT22;10089;47.876;8.346;2023-07-13T03:55:52;17.10;32.30
9699;DHT22;10089;47.876;8.346;2023-07-13T03:58:25;17.40;1.60
9699;DHT22;10089;47.876;8.346;2023-07-13T04:00:53;16.70;1.00
9699;DHT22;10089;47.876;8.346;2023-07-13T04:03:18;16.70;1.00
9699;DHT22;10089;47.876;8.346;2023-07-13T04:05:44;16.70;1.00
9699;DHT22;10089;47.876;8.346;2023-07-13T04:08:09;16.60;1.00
9699;DHT22;10089;47.876;8.346;2023-07-13T04:10:35;18.40;1.00
9699;DHT22;10089;47.876;8.346;2023-07-13T04:13:01;16.90;1.00
9699;DHT22;10089;47.876;8.346;2023-07-13T04:15:30;17.30;1.00
9699;DHT22;10089;47.876;8.346;2023-07-13T04:17:55;16.50;1.00
9699;DHT22;10089;47.876;8.346;2023-07-13T04:20:21;16.60;1.00
9699;DHT22;10089;47.876;8.346;2023-07-13T04:22:47;17.50;1.00
9699;DHT22;10089;47.876;8.346;2023-07-13T04:25:12;16.40;1.00
9699;DHT22;10089;47.876;8.346;2023-07-13T04:27:38;16.40;1.00
9699;DHT22;10089;47.876;8.346;2023-07-13T04:30:06;16.30;1.00
9699;DHT22;10089;47.876;8.346;2023-07-13T04:32:31;16.50;1.00
9699;DHT22;10089;47.876;8.346;2023-07-13T04:34:58;16.50;1.00
9699;DHT22;10089;47.876;8.346;2023-07-13T04:37:25;16.70;25.40
9699;DHT22;10089;47.876;8.346;2023-07-13T04:39:51;16.50;1.00
9699;DHT22;10089;47.876;8.346;2023-07-13T04:42:17;16.50;29.40
9699;DHT22;10089;47.876;8.346;2023-07-13T04:44:51;16.40;1.00
9699;DHT22;10089;47.876;8.346;2023-07-13T04:47:17;16.30;14.00
9699;DHT22;10089;47.876;8.346;2023-07-13T04:49:43;17.60;1.00
9699;DHT22;10089;47.876;8.346;2023-07-13T04:52:09;17.50;1.00
9699;DHT22;10089;47.876;8.346;2023-07-13T04:54:35;17.50;1.00
9699;DHT22;10089;47.876;8.346;2023-07-13T04:57:00;16.40;1.00
9699;DHT22;10089;47.876;8.346;2023-07-13T04:59:26;17.10;1.00
9699;DHT22;10089;47.876;8.346;2023-07-13T05:01:53;17.30;1.00
9699;DHT22;10089;47.876;8.346;2023-07-13T05:04:18;18.20;1.00
9699;DHT22;10089;47.876;8.346;2023-07-13T05:06:44;16.70;1.00
9699;DHT22;10089;47.876;8.346;2023-07-13T05:09:10;16.80;1.00
9699;DHT22;10089;47.876;8.346;2023-07-13T05:11:35;17.50;1.00
9699;DHT22;10089;47.876;8.346;2023-07-13T05:14:01;16.80;1.00
9699;DHT22;10089;47.876;8.346;2023-07-13T05:16:27;16.80;1.00
9699;DHT22;10089;47.876;8.346;2023-07-13T05:18:53;16.90;1.00
9699;DHT22;10089;47.876;8.346;2023-07-13T05:21:19;18.20;1.00
9699;DHT22;10089;47.876;8.346;2023-07-13T05:23:44;17.40;1.00
9699;DHT22;10089;47.876;8.346;2023-07-13T05:26:10;16.80;1.00
9699;DHT22;10089;47.876;8.346;2023-07-13T05:28:37;17.90;1.00
9699;DHT22;10089;47.876;8.346;2023-07-13T05:31:02;17.00;1.00
9699;DHT22;10089;47.876;8.346;2023-07-13T05:33:28;17.80;1.00
9699;DHT22;10089;47.876;8.346;2023-07-13T05:35:54;17.40;1.00
9699;DHT22;10089;47.876;8.346;2023-07-13T05:38:20;17.10;1.00
9699;DHT22;10089;47.876;8.346;2023-07-13T05:40:47;17.40;1.00
9699;DHT22;10089;47.876;8.346;2023-07-13T05:43:13;17.40;1.00
9699;DHT22;10089;47.876;8.346;2023-07-13T05:45:39;18.40;1.00
9699;DHT22;10089;47.876;8.346;2023-07-13T05:48:04;17.40;1.00
9699;DHT22;10089;47.876;8.346;2023-07-13T05:50:30;17.50;1.00
9699;DHT22;10089;47.876;8.346;2023-07-13T05:52:56;18.60;1.00
9699;DHT22;10089;47.876;8.346;2023-07-13T05:55:22;17.70;99.90
9699;DHT22;10089;47.876;8.346;2023-07-13T05:57:47;17.90;1.00
9699;DHT22;10089;47.876;8.346;2023-07-13T06:00:13;17.60;99.90
9699;DHT22;10089;47.876;8.346;2023-07-13T06:02:39;17.80;1.00
9699;DHT22;10089;47.876;8.346;2023-07-13T06:05:05;17.70;99.90
9699;DHT22;10089;47.876;8.346;2023-07-13T06:07:30;17.70;33.30
9699;DHT22;10089;47.876;8.346;2023-07-13T06:09:56;18.70;99.90
9699;DHT22;10089;47.876;8.346;2023-07-13T06:12:22;17.80;99.90
9699;DHT22;10089;47.876;8.346;2023-07-13T06:14:47;17.70;99.90
9699;DHT22;10089;47.876;8.346;2023-07-13T06:17:13;18.30;99.90
9699;DHT22;10089;47.876;8.346;2023-07-13T06:19:38;17.60;99.90
9699;DHT22;10089;47.876;8.346;2023-07-13T06:22:04;19.20;1.00
9699;DHT22;10089;47.876;8.346;2023-07-13T06:24:30;18.60;1.00
9699;DHT22;10089;47.876;8.346;2023-07-13T06:26:56;19.90;1.00
9699;DHT22;10089;47.876;8.346;2023-07-13T06:29:21;19.20;99.90
9699;DHT22;10089;47.876;8.346;2023-07-13T06:31:47;19.10;1.00
9699;DHT22;10089;47.876;8.346;2023-07-13T06:34:13;20.10;1.00
9699;DHT22;10089;47.876;8.346;2023-07-13T06:36:38;19.20;99.90
9699;DHT22;10089;47.876;8.346;2023-07-13T06:39:04;19.80;99.90
9699;DHT22;10089;47.876;8.346;2023-07-13T06:41:31;20.10;99.90
9699;DHT22;10089;47.876;8.346;2023-07-13T06:43:56;21.80;1.00
9699;DHT22;10089;47.876;8.346;2023-07-13T06:46:22;20.60;1.00
9699;DHT22;10089;47.876;8.346;2023-07-13T06:48:48;20.30;99.90
9699;DHT22;10089;47.876;8.346;2023-07-13T06:51:14;20.10;99.90
9699;DHT22;10089;47.876;8.346;2023-07-13T06:53:40;21.00;97.90
9699;DHT22;10089;47.876;8.346;2023-07-13T06:56:05;20.80;12.10
9699;DHT22;10089;47.876;8.346;2023-07-13T06:58:33;20.20;99.90
9699;DHT22;10089;47.876;8.346;2023-07-13T07:00:58;20.20;1.00
9699;DHT22;10089;47.876;8.346;2023-07-13T07:03:24;20.20;1.00
9699;DHT22;10089;47.876;8.346;2023-07-13T07:05:49;20.20;99.90
9699;DHT22;10089;47.876;8.346;2023-07-13T07:08:15;20.80;1.00
9699;DHT22;10089;47.876;8.346;2023-07-13T07:10:41;22.40;1.00
9699;DHT22;10089;47.876;8.346;2023-07-13T07:13:07;21.00;1.00
9699;DHT22;10089;47.876;8.346;2023-07-13T07:15:34;20.70;1.00
9699;DHT22;10089;47.876;8.346;2023-07-13T07:18:00;22.30;97.80
9699;DHT22;10089;47.876;8.346;2023-07-13T07:20:25;21.80;1.00
9699;DHT22;10089;47.876;8.346;2023-07-13T07:22:52;22.10;99.90
9699;DHT22;10089;47.876;8.346;2023-07-13T07:25:18;22.30;99.90
9699;DHT22;10089;47.876;8.346;2023-07-13T07:27:44;23.00;99.90
9699;DHT22;10089;47.876;8.346;2023-07-13T07:30:10;22.90;1.00
9699;DHT22;10089;47.876;8.346;2023-07-13T07:32:36;21.90;99.90
9699;DHT22;10089;47.876;8.346;2023-07-13T07:35:02;22.20;99.90
9699;DHT22;10089;47.876;8.346;2023-07-13T07:37:28;21.20;99.90
9699;DHT22;10089;47.876;8.346;2023-07-13T07:39:53;21.90;1.00
9699;DHT22;10089;47.876;8.346;2023-07-13T07:42:19;22.40;1.00
9699;DHT22;10089;47.876;8.346;2023-07-13T07:44:44;22.40;99.90
9699;DHT22;10089;47.876;8.346;2023-07-13T07:47:10;22.70;1.00
9699;DHT22;10089;47.876;8.346;2023-07-13T07:49:36;22.20;99.40
9699;DHT22;10089;47.876;8.346;2023-07-13T07:52:02;21.40;99.90
9699;DHT22;10089;47.876;8.346;2023-07-13T07:54:27;21.30;99.90
9699;DHT22;10089;47.876;8.346;2023-07-13T07:56:53;21.50;1.00
9699;DHT22;10089;47.876;8.346;2023-07-13T07:59:19;21.00;1.00
9699;DHT22;10089;47.876;8.346;2023-07-13T08:01:45;21.10;99.90
9699;DHT22;10089;47.876;8.346;2023-07-13T08:04:12;21.90;1.00
9699;DHT22;10089;47.876;8.346;2023-07-13T08:06:37;22.70;99.90
9699;DHT22;10089;47.876;8.346;2023-07-13T08:09:03;23.70;99.90
9699;DHT22;10089;47.876;8.346;2023-07-13T08:11:30;22.20;1.00
9699;DHT22;10089;47.876;8.346;2023-07-13T08:13:55;22.50;99.90
9699;DHT22;10089;47.876;8.346;2023-07-13T08:16:22;21.50;99.90
9699;DHT22;10089;47.876;8.346;2023-07-13T08:18:47;21.80;99.90
9699;DHT22;10089;47.876;8.346;2023-07-13T08:21:13;22.50;99.90
9699;DHT22;10089;47.876;8.346;2023-07-13T08:23:38;22.50;1.00
9699;DHT22;10089;47.876;8.346;2023-07-13T08:26:04;24.00;69.80
9699;DHT22;10089;47.876;8.346;2023-07-13T08:28:30;22.80;13.20
9699;DHT22;10089;47.876;8.346;2023-07-13T08:31:05;23.30;1.00
9699;DHT22;10089;47.876;8.346;2023-07-13T08:33:31;22.60;1.00
9699;DHT22;10089;47.876;8.346;2023-07-13T08:35:56;23.30;1.00
9699;DHT22;10089;47.876;8.346;2023-07-13T08:38:22;23.20;1.00
9699;DHT22;10089;47.876;8.346;2023-07-13T08:40:52;22.60;1.00
9699;DHT22;10089;47.876;8.346;2023-07-13T08:43:22;22.50;1.00
9699;DHT22;10089;47.876;8.346;2023-07-13T08:45:53;23.60;1.00
9699;DHT22;10089;47.876;8.346;2023-07-13T08:53:42;24.40;1.00
9699;DHT22;10089;47.876;8.346;2023-07-13T08:56:18;24.40;99.90
9699;DHT22;10089;47.876;8.346;2023-07-13T08:58:47;24.40;1.00
9699;DHT22;10089;47.876;8.346;2023-07-13T09:04:14;22.90;1.00
9699;DHT22;10089;47.876;8.346;2023-07-13T09:06:56;22.50;52.30
9699;DHT22;10089;47.876;8.346;2023-07-13T09:12:34;24.00;1.00
9699;DHT22;10089;47.876;8.346;2023-07-13T09:15:02;24.40;1.00
9699;DHT22;10089;47.876;8.346;2023-07-13T09:17:41;23.50;1.00
9699;DHT22;10089;47.876;8.346;2023-07-13T09:20:26;23.10;1.00
9699;DHT22;10089;47.876;8.346;2023-07-13T09:22:54;22.90;1.00
9699;DHT22;10089;47.876;8.346;2023-07-13T09:25:35;22.50;1.00
9699;DHT22;10089;47.876;8.346;2023-07-13T09:28:24;22.60;1.00
9699;DHT22;10089;47.876;8.346;2023-07-13T09:31:09;22.80;1.00
9699;DHT22;10089;47.876;8.346;2023-07-13T09:33:38;22.70;1.00
9699;DHT22;10089;47.876;8.346;2023-07-13T09:36:21;23.20;1.00
9699;DHT22;10089;47.876;8.346;2023-07-13T09:41:50;24.40;1.00
9699;DHT22;10089;47.876;8.346;2023-07-13T09:44:34;23.10;99.90
9699;DHT22;10089;47.876;8.346;2023-07-13T09:47:00;23.20;1.00
9699;DHT22;10089;47.876;8.346;2023-07-13T09:49:35;24.00;1.00
9699;DHT22;10089;47.876;8.346;2023-07-13T09:52:02;23.90;3.50
9699;DHT22;10089;47.876;8.346;2023-07-13T09:54:28;23.80;1.00
9699;DHT22;10089;47.876;8.346;2023-07-13T09:56:59;23.00;99.90
9699;DHT22;10089;47.876;8.346;2023-07-13T09:59:30;22.00;1.00
9699;DHT22;10089;47.876;8.346;2023-07-13T10:01:57;21.90;1.00
9699;DHT22;10089;47.876;8.346;2023-07-13T10:04:29;22.30;99.90
9699;DHT22;10089;47.876;8.346;2023-07-13T10:07:07;22.20;99.90
9699;DHT22;10089;47.876;8.346;2023-07-13T10:09:33;22.40;1.00
9699;DHT22;10089;47.876;8.346;2023-07-13T10:11:58;23.10;99.90
9699;DHT22;10089;47.876;8.346;2023-07-13T10:14:24;23.40;1.00
9699;DHT22;10089;47.876;8.346;2023-07-13T10:16:56;23.10;1.00
9699;DHT22;10089;47.876;8.346;2023-07-13T10:19:26;22.80;1.00
9699;DHT22;10089;47.876;8.346;2023-07-13T10:22:24;22.70;1.00
9699;DHT22;10089;47.876;8.346;2023-07-13T10:24:46;22.50;1.00
9699;DHT22;10089;47.876;8.346;2023-07-13T10:27:18;22.50;99.90
9699;DHT22;10089;47.876;8.346;2023-07-13T10:30:11;22.50;1.00
9699;DHT22;10089;47.876;8.346;2023-07-13T10:32:37;23.20;1.00
9699;DHT22;10089;47.876;8.346;2023-07-13T10:35:04;23.80;1.00
9699;DHT22;10089;47.876;8.346;2023-07-13T10:37:39;24.10;1.00
9699;DHT22;10089;47.876;8.346;2023-07-13T10:40:17;23.00;1.00
9699;DHT22;10089;47.876;8.346;2023-07-13T10:42:46;22.70;1.00
9699;DHT22;10089;47.876;8.346;2023-07-13T10:45:21;23.20;99.90
9699;DHT22;10089;47.876;8.346;2023-07-13T10:47:50;23.30;99.90
9699;DHT22;10089;47.876;8.346;2023-07-13T10:50:23;23.60;99.90
9699;DHT22;10089;47.876;8.346;2023-07-13T10:52:55;23.00;1.00
9699;DHT22;10089;47.876;8.346;2023-07-13T10:55:34;23.00;1.00
9699;DHT22;10089;47.876;8.346;2023-07-13T10:58:18;22.70;99.90
9699;DHT22;10089;47.876;8.346;2023-07-13T11:01:02;22.90;99.90
9699;DHT22;10089;47.876;8.346;2023-07-13T11:03:30;22.40;99.90
9699;DHT22;10089;47.876;8.346;2023-07-13T11:08:58;21.90;99.90
9699;DHT22;10089;47.876;8.346;2023-07-13T11:11:35;22.50;99.90
9699;DHT22;10089;47.876;8.346;2023-07-13T11:14:25;22.60;1.00
9699;DHT22;10089;47.876;8.346;2023-07-13T11:16:51;22.80;1.00
9699;DHT22;10089;47.876;8.346;2023-07-13T11:25:20;21.70;1.00
9699;DHT22;10089;47.876;8.346;2023-07-13T11:27:51;21.50;99.90
9699;DHT22;10089;47.876;8.346;2023-07-13T11:30:31;22.20;1.00
9699;DHT22;10089;47.876;8.346;2023-07-13T11:33:17;22.60;1.00
9699;DHT22;10089;47.876;8.346;2023-07-13T11:36:03;23.20;99.90
9699;DHT22;10089;47.876;8.346;2023-07-13T11:38:51;23.20;1.00
9699;DHT22;10089;47.876;8.346;2023-07-13T11:41:28;23.10;1.00
9699;DHT22;10089;47.876;8.346;2023-07-13T11:43:55;23.20;1.00
9699;DHT22;10089;47.876;8.346;2023-07-13T11:46:28;23.10;1.00
9699;DHT22;10089;47.876;8.346;2023-07-13T11:48:54;23.30;1.00
9699;DHT22;10089;47.876;8.346;2023-07-13T11:51:33;23.10;99.90
9699;DHT22;10089;47.876;8.346;2023-07-13T11:54:04;23.70;1.00
9699;DHT22;10089;47.876;8.346;2023-07-13T11:56:30;23.80;99.90
9699;DHT22;10089;47.876;8.346;2023-07-13T11:59:02;23.70;99.90
9699;DHT22;10089;47.876;8.346;2023-07-13T12:01:31;24.00;99.90
9699;DHT22;10089;47.876;8.346;2023-07-13T12:04:00;23.90;99.90
9699;DHT22;10089;47.876;8.346;2023-07-13T12:06:30;23.80;99.90
9699;DHT22;10089;47.876;8.346;2023-07-13T12:08:58;23.80;99.90
9699;DHT22;10089;47.876;8.346;2023-07-13T12:11:24;24.30;99.90
9699;DHT22;10089;47.876;8.346;2023-07-13T12:13:50;25.00;99.90
9699;DHT22;10089;47.876;8.346;2023-07-13T12:16:34;24.60;99.90
9699;DHT22;10089;47.876;8.346;2023-07-13T12:19:00;24.20;99.90
9699;DHT22;10089;47.876;8.346;2023-07-13T12:21:33;24.30;99.90
9699;DHT22;10089;47.876;8.346;2023-07-13T12:24:01;24.60;99.90
9699;DHT22;10089;47.876;8.346;2023-07-13T12:26:30;24.30;99.90
9699;DHT22;10089;47.876;8.346;2023-07-13T12:28:58;23.60;99.90
9699;DHT22;10089;47.876;8.346;2023-07-13T12:31:42;24.20;99.90
9699;DHT22;10089;47.876;8.346;2023-07-13T12:34:12;24.80;99.90
9699;DHT22;10089;47.876;8.346;2023-07-13T12:36:41;25.20;99.90
9699;DHT22;10089;47.876;8.346;2023-07-13T12:39:34;25.50;99.90
9699;DHT22;10089;47.876;8.346;2023-07-13T12:42:23;25.70;99.90
9699;DHT22;10089;47.876;8.346;2023-07-13T12:45:01;25.40;99.90
9699;DHT22;10089;47.876;8.346;2023-07-13T12:47:28;25.00;99.90
9699;DHT22;10089;47.876;8.346;2023-07-13T12:49:59;25.00;99.90
9699;DHT22;10089;47.876;8.346;2023-07-13T12:52:33;25.40;99.90
9699;DHT22;10089;47.876;8.346;2023-07-13T12:55:15;25.40;99.90
9699;DHT22;10089;47.876;8.346;2023-07-13T12:57:53;25.10;89.90
9699;DHT22;10089;47.876;8.346;2023-07-13T13:00:31;25.40;92.10
9699;DHT22;10089;47.876;8.346;2023-07-13T13:03:16;24.90;67.10
9699;DHT22;10089;47.876;8.346;2023-07-13T13:05:45;24.10;64.40
9699;DHT22;10089;47.876;8.346;2023-07-13T13:08:11;23.70;88.50
9699;DHT22;10089;47.876;8.346;2023-07-13T13:10:37;23.90;97.50
9699;DHT22;10089;47.876;8.346;2023-07-13T13:13:03;24.70;79.20
9699;DHT22;10089;47.876;8.346;2023-07-13T13:15:29;25.10;57.80
9699;DHT22;10089;47.876;8.346;2023-07-13T13:17:55;25.10;39.90
9699;DHT22;10089;47.876;8.346;2023-07-13T13:20:22;25.00;54.40
9699;DHT22;10089;47.876;8.346;2023-07-13T13:22:48;25.20;34.40
9699;DHT22;10089;47.876;8.346;2023-07-13T13:25:15;25.20;27.70
9699;DHT22;10089;47.876;8.346;2023-07-13T13:27:41;25.30;27.40
9699;DHT22;10089;47.876;8.346;2023-07-13T13:30:18;25.40;18.90
9699;DHT22;10089;47.876;8.346;2023-07-13T13:32:45;25.20;10.10
9699;DHT22;10089;47.876;8.346;2023-07-13T13:35:16;25.20;14.10
9699;DHT22;10089;47.876;8.346;2023-07-13T13:37:43;25.50;10.70
9699;DHT22;10089;47.876;8.346;2023-07-13T13:40:17;25.70;15.80
9699;DHT22;10089;47.876;8.346;2023-07-13T13:42:42;24.90;1.00
9699;DHT22;10089;47.876;8.346;2023-07-13T13:45:12;25.00;5.20
9699;DHT22;10089;47.876;8.346;2023-07-13T13:47:39;24.90;1.00
9699;DHT22;10089;47.876;8.346;2023-07-13T13:50:25;24.70;1.70
9699;DHT22;10089;47.876;8.346;2023-07-13T13:52:51;25.00;1.00
9699;DHT22;10089;47.876;8.346;2023-07-13T13:55:21;25.20;1.00
9699;DHT22;10089;47.876;8.346;2023-07-13T13:57:47;25.40;1.00
9699;DHT22;10089;47.876;8.346;2023-07-13T14:00:14;25.50;1.00
9699;DHT22;10089;47.876;8.346;2023-07-13T14:02:45;25.40;1.00
9699;DHT22;10089;47.876;8.346;2023-07-13T14:05:14;25.50;1.00
9699;DHT22;10089;47.876;8.346;2023-07-13T14:07:41;25.30;1.00
9699;DHT22;10089;47.876;8.346;2023-07-13T14:10:15;24.80;1.00
9699;DHT22;10089;47.876;8.346;2023-07-13T14:12:52;24.30;1.00
9699;DHT22;10089;47.876;8.346;2023-07-13T14:15:23;23.90;1.00
9699;DHT22;10089;47.876;8.346;2023-07-13T14:17:49;23.50;1.00
9699;DHT22;10089;47.876;8.346;2023-07-13T14:20:16;23.70;1.00
9699;DHT22;10089;47.876;8.346;2023-07-13T14:22:42;24.00;1.00
9699;DHT22;10089;47.876;8.346;2023-07-13T14:25:14;24.40;1.00
9699;DHT22;10089;47.876;8.346;2023-07-13T14:27:41;24.70;1.00
9699;DHT22;10089;47.876;8.346;2023-07-13T14:30:22;25.00;1.00
9699;DHT22;10089;47.876;8.346;2023-07-13T14:32:48;24.70;1.00
9699;DHT22;10089;47.876;8.346;2023-07-13T14:35:16;24.40;1.00
9699;DHT22;10089;47.876;8.346;2023-07-13T14:37:43;24.30;1.00
9699;DHT22;10089;47.876;8.346;2023-07-13T14:40:26;24.00;1.00
9699;DHT22;10089;47.876;8.346;2023-07-13T14:42:52;23.60;1.00
9699;DHT22;10089;47.876;8.346;2023-07-13T14:45:19;23.80;1.00
9699;DHT22;10089;47.876;8.346;2023-07-13T14:47:46;23.90;1.00
9699;DHT22;10089;47.876;8.346;2023-07-13T14:50:17;24.20;1.00
9699;DHT22;10089;47.876;8.346;2023-07-13T14:52:44;24.30;1.00
9699;DHT22;10089;47.876;8.346;2023-07-13T14:55:15;24.50;1.00
9699;DHT22;10089;47.876;8.346;2023-07-13T14:57:42;24.40;1.00
9699;DHT22;10089;47.876;8.346;2023-07-13T15:00:19;24.60;1.00
9699;DHT22;10089;47.876;8.346;2023-07-13T15:02:49;24.70;1.00
9699;DHT22;10089;47.876;8.346;2023-07-13T15:05:24;24.90;1.00
9699;DHT22;10089;47.876;8.346;2023-07-13T15:07:51;24.90;1.00
9699;DHT22;10089;47.876;8.346;2023-07-13T15:10:19;24.60;1.00
9699;DHT22;10089;47.876;8.346;2023-07-13T15:12:46;24.20;1.00
9699;DHT22;10089;47.876;8.346;2023-07-13T15:15:12;24.30;1.00
9699;DHT22;10089;47.876;8.346;2023-07-13T15:17:40;24.20;1.00
9699;DHT22;10089;47.876;8.346;2023-07-13T15:22:44;24.40;1.00
9699;DHT22;10089;47.876;8.346;2023-07-13T15:25:23;24.30;1.00
9699;DHT22;10089;47.876;8.346;2023-07-13T15:27:53;24.20;1.00
9699;DHT22;10089;47.876;8.346;2023-07-13T15:30:20;24.00;1.00
9699;DHT22;10089;47.876;8.346;2023-07-13T15:32:46;24.00;1.00
9699;DHT22;10089;47.876;8.346;2023-07-13T15:35:18;23.90;1.00
9699;DHT22;10089;47.876;8.346;2023-07-13T15:37:45;23.70;1.00
9699;DHT22;10089;47.876;8.346;2023-07-13T15:40:12;23.40;1.00
9699;DHT22;10089;47.876;8.346;2023-07-13T15:42:39;23.20;1.40
9699;DHT22;10089;47.876;8.346;2023-07-13T15:45:19;23.10;11.50
9699;DHT22;10089;47.876;8.346;2023-07-13T15:47:46;23.00;20.90
9699;DHT22;10089;47.876;8.346;2023-07-13T15:50:17;22.90;24.80
9699;DHT22;10089;47.876;8.346;2023-07-13T15:52:45;23.10;42.10
9699;DHT22;10089;47.876;8.346;2023-07-13T15:55:13;23.20;38.10
9699;DHT22;10089;47.876;8.346;2023-07-13T15:57:42;23.10;67.50
9699;DHT22;10089;47.876;8.346;2023-07-13T16:00:20;23.00;90.70
9699;DHT22;10089;47.876;8.346;2023-07-13T16:02:48;22.70;99.90
9699;DHT22;10089;47.876;8.346;2023-07-13T16:05:14;22.50;99.90
9699;DHT22;10089;47.876;8.346;2023-07-13T16:07:42;22.40;99.90
9699;DHT22;10089;47.876;8.346;2023-07-13T16:10:13;22.30;99.90
9699;DHT22;10089;47.876;8.346;2023-07-13T16:12:39;22.20;99.90
9699;DHT22;10089;47.876;8.346;2023-07-13T16:15:16;22.40;99.90
9699;DHT22;10089;47.876;8.346;2023-07-13T16:17:44;22.50;99.90
9699;DHT22;10089;47.876;8.346;2023-07-13T16:20:10;22.40;99.90
9699;DHT22;10089;47.876;8.346;2023-07-13T16:22:37;22.30;99.90
9699;DHT22;10089;47.876;8.346;2023-07-13T16:25:16;22.40;99.90
9699;DHT22;10089;47.876;8.346;2023-07-13T16:27:46;22.40;99.90
9699;DHT22;10089;47.876;8.346;2023-07-13T16:30:17;22.20;99.90